createdAt,value
2022-09-23T00:02:34.070Z,100009.63
2022-09-23T00:05:40.893Z,100000.28
2022-09-23T00:08:44.207Z,100002.38
2022-09-23T00:11:47.188Z,100003.81
2022-09-23T00:14:49.916Z,100004.25
2022-09-23T00:17:53.292Z,100000.91
2022-09-23T00:20:56.840Z,99990.25
2022-09-23T00:24:00.357Z,99991.25
2022-09-23T00:27:04.148Z,99961.75
2022-09-23T00:30:10.862Z,99986.66
2022-09-23T00:33:15.758Z,99987.63
2022-09-23T00:36:20.750Z,99978.28
2022-09-23T00:39:24.534Z,99972.41
2022-09-23T00:42:27.899Z,99965.97
2022-09-23T00:45:31.154Z,99962.19
2022-09-23T00:48:35.680Z,99955.56
2022-09-23T00:51:51.107Z,99955.09
2022-09-23T00:54:57.106Z,99957.53
2022-09-23T00:58:02.920Z,99954.50
2022-09-23T01:01:06.025Z,99946.09
2022-09-23T01:04:09.377Z,99950.00
2022-09-23T01:07:12.681Z,99943.81
2022-09-23T01:10:17.050Z,99943.72
2022-09-23T01:13:50.891Z,99942.84
2022-09-23T01:17:14.567Z,99939.91
2022-09-23T01:20:37.501Z,99943.81
2022-09-23T01:24:08.475Z,99942.28
2022-09-23T01:27:19.044Z,99942.28
2022-09-23T01:30:50.318Z,99947.28
2022-09-23T01:34:06.358Z,99945.00
2022-09-23T01:37:15.757Z,99950.94
2022-09-23T01:40:38.447Z,99949.50
2022-09-23T01:44:00.565Z,99940.97
2022-09-23T01:47:16.021Z,99948.88
2022-09-23T01:50:44.843Z,99944.28
2022-09-23T01:53:55.668Z,99941.94
2022-09-23T01:57:05.819Z,99942.41
2022-09-23T02:00:18.930Z,99945.50
2022-09-23T02:03:29.730Z,99937.78
2022-09-23T02:06:47.455Z,99938.25
2022-09-23T02:09:59.792Z,99947.00
2022-09-23T02:13:14.418Z,99945.94
2022-09-23T02:16:45.427Z,99948.41
2022-09-23T02:20:00.268Z,99940.13
2022-09-23T02:23:19.262Z,99941.03
2022-09-23T02:26:30.768Z,99911.34
2022-09-23T02:29:45.781Z,99929.81
2022-09-23T02:32:59.245Z,99935.47
2022-09-23T02:36:20.585Z,99942.72
2022-09-23T02:39:29.455Z,99910.91
2022-09-23T02:42:52.537Z,99925.50
2022-09-23T02:45:56.237Z,99933.06
2022-09-23T02:49:14.382Z,99938.00
2022-09-23T02:52:18.179Z,99932.56
2022-09-23T02:55:24.996Z,99942.41
2022-09-23T02:58:30.095Z,99937.56
2022-09-23T03:02:24.469Z,99942.03
2022-09-23T03:05:34.857Z,99945.84
2022-09-23T03:08:46.165Z,99946.66
2022-09-23T03:12:05.978Z,99913.34
2022-09-23T03:15:24.534Z,99950.09
2022-09-23T03:18:40.866Z,99951.09
2022-09-23T03:21:46.582Z,99954.13
2022-09-23T03:24:54.030Z,99952.16
2022-09-23T03:28:00.931Z,99955.16
2022-09-23T03:31:05.177Z,99950.50
2022-09-23T03:34:25.630Z,99952.84
2022-09-23T03:37:39.044Z,99937.50
2022-09-23T03:40:47.971Z,99938.16
2022-09-23T03:43:53.730Z,99948.84
2022-09-23T03:47:03.499Z,99917.72
2022-09-23T03:50:07.075Z,99948.91
2022-09-23T03:53:14.028Z,99947.06
2022-09-23T03:56:17.498Z,99941.03
2022-09-23T03:59:20.731Z,99917.37
2022-09-23T04:02:23.439Z,99919.88
2022-09-23T04:05:26.241Z,99947.31
2022-09-23T04:08:29.149Z,99955.00
2022-09-23T04:11:32.725Z,99941.50
2022-09-23T04:14:35.685Z,99938.16
2022-09-23T04:17:38.765Z,99942.31
2022-09-23T04:20:42.085Z,99946.91
2022-09-23T04:23:46.663Z,99923.81
2022-09-23T04:26:55.304Z,99950.25
2022-09-23T04:29:59.744Z,99947.75
2022-09-23T04:33:03.819Z,99952.91
2022-09-23T04:36:09.690Z,99944.81
2022-09-23T04:39:15.087Z,99954.16
2022-09-23T04:42:20.027Z,99952.28
2022-09-23T04:45:27.978Z,99948.13
2022-09-23T04:48:32.620Z,99951.03
2022-09-23T04:51:36.186Z,99948.13
2022-09-23T04:54:42.249Z,99959.38
2022-09-23T04:57:46.053Z,99953.97
2022-09-23T05:00:49.695Z,99949.16
2022-09-23T05:03:55.984Z,99961.03
2022-09-23T05:07:03.246Z,99962.28
2022-09-23T05:10:07.879Z,99961.88
2022-09-23T05:13:12.065Z,99956.91
2022-09-23T05:16:15.807Z,99958.97
2022-09-23T05:19:19.107Z,99950.84
2022-09-23T05:22:22.549Z,99954.87
2022-09-23T05:25:26.258Z,99958.59
2022-09-23T05:28:32.861Z,99964.09
2022-09-23T05:31:37.022Z,99964.34
2022-09-23T05:34:41.306Z,99951.03
2022-09-23T05:37:45.238Z,99960.16
2022-09-23T05:40:59.732Z,99952.66
2022-09-23T05:44:03.651Z,99955.63
2022-09-23T05:47:06.987Z,99968.28
2022-09-23T05:50:12.474Z,99961.53
2022-09-23T05:53:15.753Z,99960.94
2022-09-23T05:56:22.694Z,99967.28
2022-09-23T05:59:28.052Z,99963.19
2022-09-23T06:02:31.510Z,99940.69
2022-09-23T06:05:36.340Z,99969.87
2022-09-23T06:08:41.895Z,99969.25
2022-09-23T06:11:47.166Z,99962.81
2022-09-23T06:14:53.114Z,99965.25
2022-09-23T06:18:00.961Z,99976.28
2022-09-23T06:21:06.236Z,99964.31
2022-09-23T06:24:13.888Z,99974.62
2022-09-23T06:27:21.009Z,99974.62
2022-09-23T06:30:27.031Z,99976.59
2022-09-23T06:33:37.278Z,99970.84
2022-09-23T06:36:46.219Z,99969.28
2022-09-23T06:39:52.088Z,99976.97
2022-09-23T06:43:01.290Z,99966.59
2022-09-23T06:46:08.846Z,99976.56
2022-09-23T06:49:14.591Z,99984.75
2022-09-23T06:52:22.648Z,99986.13
2022-09-23T06:55:29.442Z,99989.59
2022-09-23T06:58:38.030Z,99991.84
2022-09-23T07:01:43.382Z,99969.75
2022-09-23T07:04:51.234Z,99988.34
2022-09-23T07:07:59.495Z,99976.56
2022-09-23T07:11:07.653Z,99988.03
2022-09-23T07:14:15.496Z,99985.87
2022-09-23T07:17:23.081Z,99982.41
2022-09-23T07:20:27.021Z,99982.84
2022-09-23T07:23:34.310Z,99989.84
2022-09-23T07:26:45.670Z,99978.81
2022-09-23T07:29:56.030Z,99990.06
2022-09-23T07:33:14.721Z,99984.75
2022-09-23T07:36:33.566Z,99987.13
2022-09-23T07:39:41.695Z,99984.34
2022-09-23T07:42:48.731Z,99981.19
2022-09-23T07:45:57.078Z,99981.91
2022-09-23T07:49:05.658Z,99981.69
2022-09-23T07:52:11.823Z,99985.37
2022-09-23T07:55:21.129Z,99980.50
2022-09-23T07:58:27.839Z,99987.00
2022-09-23T08:01:40.119Z,99978.41
2022-09-23T08:04:52.006Z,99992.34
2022-09-23T08:07:59.353Z,99993.84
2022-09-23T08:11:14.823Z,100000.00
2022-09-23T08:14:24.602Z,99992.91
2022-09-23T08:17:35.886Z,99998.03
2022-09-23T08:20:48.994Z,99987.47
2022-09-23T08:23:58.960Z,99989.88
2022-09-23T08:27:11.664Z,99988.09
2022-09-23T08:30:21.124Z,99979.72
2022-09-23T08:33:32.675Z,99989.34
2022-09-23T08:36:45.332Z,99990.84
2022-09-23T08:39:52.203Z,99984.88
2022-09-23T08:42:59.126Z,99982.84
2022-09-23T08:46:15.502Z,99987.16
2022-09-23T08:50:01.279Z,99984.47
2022-09-23T08:53:16.238Z,99994.19
2022-09-23T08:56:25.245Z,99979.88
2022-09-23T08:59:42.681Z,99980.72
2022-09-23T09:02:49.913Z,99973.69
2022-09-23T09:06:00.396Z,99969.69
2022-09-23T09:09:24.457Z,99969.16
2022-09-23T09:13:02.092Z,99966.03
2022-09-23T09:16:59.392Z,99967.50
2022-09-23T09:20:17.422Z,99965.16
2022-09-23T09:23:32.011Z,99964.38
2022-09-23T09:26:40.804Z,99965.34
2022-09-23T09:29:55.997Z,99954.47
2022-09-23T09:33:04.330Z,99954.31
2022-09-23T09:36:49.031Z,99955.37
2022-09-23T09:39:56.507Z,99951.34
2022-09-23T09:43:06.959Z,99952.94
2022-09-23T09:46:26.229Z,99951.69
2022-09-23T09:50:02.574Z,99942.72
2022-09-23T09:53:28.018Z,99950.31
2022-09-23T09:56:37.955Z,99939.44
2022-09-23T09:59:47.232Z,99959.75
2022-09-23T10:03:28.047Z,99941.66
2022-09-23T10:06:38.796Z,99947.47
2022-09-23T10:09:52.109Z,99951.56
2022-09-23T10:12:58.545Z,99944.53
2022-09-23T10:16:05.775Z,99942.56
2022-09-23T10:19:28.490Z,99933.81
2022-09-23T10:22:42.840Z,99936.97
2022-09-23T10:26:08.526Z,99929.78
2022-09-23T10:29:30.307Z,99938.47
2022-09-23T10:32:41.619Z,99934.00
2022-09-23T10:35:57.740Z,99937.63
2022-09-23T10:39:34.637Z,99938.28
2022-09-23T10:43:35.483Z,99930.78
2022-09-23T10:46:50.373Z,99934.50
2022-09-23T10:50:21.334Z,99923.56
2022-09-23T10:53:55.712Z,99922.31
2022-09-23T10:57:29.409Z,99915.38
2022-09-23T11:01:05.502Z,99918.97
2022-09-23T11:04:54.477Z,99921.03
2022-09-23T11:08:36.382Z,99919.72
2022-09-23T11:12:18.848Z,99917.06
2022-09-23T11:15:56.853Z,99921.97
2022-09-23T11:19:11.430Z,99925.34
2022-09-23T11:22:22.109Z,99912.19
2022-09-23T11:25:48.281Z,99911.06
2022-09-23T11:29:02.569Z,99891.84
2022-09-23T11:32:28.766Z,99905.22
2022-09-23T11:35:42.812Z,99900.06
2022-09-23T11:38:52.056Z,99906.88
2022-09-23T11:42:00.881Z,99893.19
2022-09-23T11:45:15.649Z,99889.25
2022-09-23T11:48:37.743Z,99880.56
2022-09-23T11:51:59.773Z,99880.22
2022-09-23T12:11:59.800Z,99854.44
2022-09-23T12:15:21.975Z,99854.44
2022-09-23T12:18:35.754Z,99856.41
2022-09-23T12:21:51.111Z,99833.87
2022-09-23T12:25:26.893Z,99844.91
2022-09-23T12:28:36.233Z,99849.22
2022-09-23T12:31:43.072Z,99833.06
2022-09-23T12:34:52.122Z,99849.84
2022-09-23T12:37:55.889Z,99851.69
2022-09-23T12:41:00.689Z,99844.06
2022-09-23T12:44:29.437Z,99844.41
2022-09-23T12:47:41.101Z,99816.44
2022-09-23T12:51:02.167Z,99846.69
2022-09-23T12:54:05.609Z,99828.25
2022-09-23T12:57:35.001Z,99795.59
2022-09-23T13:00:38.377Z,99830.72
2022-09-23T13:04:10.564Z,99827.28
2022-09-23T13:07:27.408Z,99821.31
2022-09-23T13:10:34.032Z,99815.19
2022-09-23T13:13:46.158Z,99820.00
2022-09-23T13:16:49.769Z,99774.28
2022-09-23T13:20:03.830Z,99807.59
2022-09-23T13:23:22.421Z,99818.06
2022-09-23T13:26:25.922Z,99809.00
2022-09-23T13:29:44.666Z,99795.72
2022-09-23T13:33:07.039Z,99794.44
2022-09-23T13:36:17.671Z,99791.00
2022-09-23T13:39:29.072Z,99784.94
2022-09-23T13:42:40.305Z,99778.22
2022-09-23T13:45:44.685Z,99780.87
2022-09-23T13:48:51.179Z,99782.00
2022-09-23T13:51:56.915Z,99783.06
2022-09-23T13:55:00.442Z,99782.84
2022-09-23T13:58:13.860Z,99782.09
2022-09-23T14:01:32.573Z,99774.13
2022-09-23T14:04:37.613Z,99780.81
2022-09-23T14:07:41.095Z,99777.53
2022-09-23T14:10:47.301Z,99768.22
2022-09-23T14:13:55.342Z,99762.25
2022-09-23T14:16:59.530Z,99763.59
2022-09-23T14:20:02.963Z,99765.37
2022-09-23T14:23:16.674Z,99766.41
2022-09-23T14:26:21.477Z,99764.66
2022-09-23T14:29:37.880Z,99753.47
2022-09-23T14:32:41.528Z,99748.16
2022-09-23T14:35:48.604Z,99727.00
2022-09-23T14:38:51.890Z,99720.00
2022-09-23T14:41:56.707Z,99716.34
2022-09-23T14:45:00.707Z,99737.94
2022-09-23T14:48:13.804Z,99736.56
2022-09-23T14:51:17.788Z,99734.53
2022-09-23T14:54:37.478Z,99737.44
2022-09-23T14:57:43.445Z,99730.22
2022-09-23T15:01:01.785Z,99730.31
2022-09-23T15:04:13.179Z,99735.91
2022-09-23T15:07:20.775Z,99720.41
2022-09-23T15:10:28.145Z,99745.75
2022-09-23T15:13:36.934Z,99706.06
2022-09-23T15:16:40.967Z,99741.50
2022-09-23T15:19:46.728Z,99746.91
2022-09-23T15:22:55.414Z,99749.63
2022-09-23T15:26:07.505Z,99745.66
2022-09-23T15:29:11.483Z,99736.69
2022-09-23T15:32:15.526Z,99739.53
2022-09-23T15:35:22.185Z,99743.81
2022-09-23T15:38:27.286Z,99752.16
2022-09-23T15:41:30.459Z,99725.38
2022-09-23T15:44:34.981Z,99742.72
2022-09-23T15:47:38.249Z,99738.72
2022-09-23T15:50:42.978Z,99746.53
2022-09-23T15:53:48.036Z,99749.37
2022-09-23T15:56:51.259Z,99748.13
2022-09-23T15:59:58.469Z,99722.44
2022-09-23T16:03:02.610Z,99736.50
2022-09-23T16:06:06.259Z,99738.75
2022-09-23T16:09:10.795Z,99723.47
2022-09-23T16:12:14.751Z,99741.63
2022-09-23T16:15:20.699Z,99739.19
2022-09-23T16:18:23.941Z,99701.94
2022-09-23T16:21:28.699Z,99722.53
2022-09-23T16:24:32.070Z,99742.28
2022-09-23T16:27:35.344Z,99742.25
2022-09-23T16:30:39.063Z,99738.88
2022-09-23T16:33:43.323Z,99744.84
2022-09-23T16:36:47.041Z,99743.97
2022-09-23T16:39:51.030Z,99746.91
2022-09-23T16:42:59.081Z,99745.16
2022-09-23T16:46:02.982Z,99748.28
2022-09-23T16:49:07.351Z,99748.66
2022-09-23T16:52:17.174Z,99748.25
2022-09-23T16:55:21.600Z,99750.00
2022-09-23T16:58:24.856Z,99752.50
2022-09-23T17:01:48.165Z,99762.13
2022-09-23T17:04:50.936Z,99753.97
2022-09-23T17:07:54.884Z,99749.09
2022-09-23T17:10:59.175Z,99755.91
2022-09-23T17:14:02.040Z,99756.47
2022-09-23T17:17:04.799Z,99759.78
2022-09-23T17:20:08.207Z,99712.75
2022-09-23T17:23:10.965Z,99715.47
2022-09-23T17:26:13.855Z,99750.81
2022-09-23T17:29:16.669Z,99759.78
2022-09-23T17:32:19.597Z,99754.06
2022-09-23T17:35:22.855Z,99734.22
2022-09-23T17:38:29.419Z,99752.53
2022-09-23T17:41:32.291Z,99766.41
2022-09-23T17:44:36.251Z,99763.16
2022-09-23T17:47:41.880Z,99765.66
2022-09-23T17:50:57.075Z,99723.50
2022-09-23T17:53:59.752Z,99717.72
2022-09-23T17:57:02.747Z,99768.66
2022-09-23T18:00:06.307Z,99716.94
2022-09-23T18:03:14.949Z,99761.59
2022-09-23T18:06:22.458Z,99735.13
2022-09-23T18:09:25.056Z,99759.44
2022-09-23T18:12:28.016Z,99773.84
2022-09-23T18:15:30.999Z,99747.97
2022-09-23T18:18:33.943Z,99758.59
2022-09-23T18:21:40.207Z,99769.69
2022-09-23T18:24:43.169Z,99775.69
2022-09-23T18:27:45.791Z,99727.63
2022-09-23T18:30:55.744Z,99782.47
2022-09-23T18:33:58.397Z,99776.88
2022-09-23T18:37:01.310Z,99772.22
2022-09-23T18:40:05.250Z,99786.94
2022-09-23T18:43:08.506Z,99782.44
2022-09-23T18:46:13.113Z,99780.63
2022-09-23T18:49:34.607Z,99790.16
2022-09-23T18:52:37.186Z,99784.81
2022-09-23T18:55:40.776Z,99736.00
2022-09-23T18:58:51.903Z,99735.22
2022-09-23T19:01:56.246Z,99781.03
2022-09-23T19:04:58.925Z,99768.84
2022-09-23T19:08:02.066Z,99771.41
2022-09-23T19:11:07.396Z,99772.28
2022-09-23T19:14:11.917Z,99771.69
2022-09-23T19:17:14.670Z,99770.44
2022-09-23T19:20:17.969Z,99779.87
2022-09-23T19:23:21.623Z,99780.94
2022-09-23T19:26:27.930Z,99784.09
2022-09-23T19:29:30.967Z,99775.34
2022-09-23T19:32:34.764Z,99780.22
2022-09-23T19:35:47.558Z,99755.41
2022-09-23T19:38:53.531Z,99777.25
2022-09-23T19:41:56.733Z,99782.06
2022-09-23T19:44:59.702Z,99776.41
2022-09-23T19:48:03.010Z,99776.41
2022-09-23T19:51:06.688Z,99776.25
2022-09-23T19:54:09.734Z,99770.88
2022-09-23T19:57:12.928Z,99765.94
2022-09-23T20:00:16.049Z,99780.31
2022-09-23T20:03:18.913Z,99751.31
2022-09-23T20:06:22.180Z,99777.09
2022-09-23T20:09:28.887Z,99768.19
2022-09-23T20:12:33.383Z,99776.31
2022-09-23T20:15:37.252Z,99752.53
2022-09-23T20:18:41.202Z,99776.75
2022-09-23T20:21:45.168Z,99772.16
2022-09-23T20:24:48.799Z,99769.94
2022-09-23T20:27:53.767Z,99772.91
2022-09-23T20:30:59.778Z,99746.22
2022-09-23T20:34:05.888Z,99779.19
2022-09-23T20:37:11.114Z,99773.78
2022-09-23T20:40:15.672Z,99775.03
2022-09-23T20:43:20.412Z,99768.62
2022-09-23T20:46:24.608Z,99770.56
2022-09-23T20:49:34.625Z,99768.09
2022-09-23T20:52:39.460Z,99763.97
2022-09-23T20:55:51.506Z,99763.81
2022-09-23T20:59:03.206Z,99771.28
2022-09-23T21:02:08.419Z,99757.59
2022-09-23T21:05:13.834Z,99766.75
2022-09-23T21:08:17.847Z,99763.00
2022-09-23T21:11:21.901Z,99766.75
2022-09-23T21:14:25.208Z,99755.31
2022-09-23T21:17:28.902Z,99763.84
2022-09-23T21:20:32.011Z,99767.59
2022-09-23T21:23:40.622Z,99765.31
2022-09-23T21:26:47.388Z,99763.66
2022-09-23T21:29:50.821Z,99767.22
2022-09-23T21:32:53.806Z,99765.16
2022-09-23T21:35:58.459Z,99770.78
2022-09-23T21:39:04.498Z,99765.56
2022-09-23T21:42:08.008Z,99759.75
2022-09-23T21:45:11.190Z,99764.16
2022-09-23T21:48:14.840Z,99766.88
2022-09-23T21:51:29.463Z,99781.44
2022-09-23T21:54:32.359Z,99771.25
2022-09-23T21:57:35.168Z,99772.72
2022-09-23T22:00:39.323Z,99776.06
2022-09-23T22:03:44.966Z,99759.09
2022-09-23T22:06:49.183Z,99774.41
2022-09-23T22:09:52.655Z,99774.19
2022-09-23T22:12:55.815Z,99769.25
2022-09-23T22:16:06.202Z,99747.03
2022-09-23T22:19:11.193Z,99742.25
2022-09-23T22:22:17.972Z,99778.59
2022-09-23T22:25:21.199Z,99778.59
2022-09-23T22:28:43.462Z,99758.44
2022-09-23T22:32:05.243Z,99751.38
2022-09-23T22:35:13.871Z,99772.53
2022-09-23T22:38:16.815Z,99775.66
2022-09-23T22:41:22.707Z,99761.97
2022-09-23T22:44:26.146Z,99765.50
2022-09-23T22:47:29.324Z,99744.59
2022-09-23T22:50:32.131Z,99776.31
2022-09-23T22:53:35.806Z,99740.41
2022-09-23T22:56:39.352Z,99764.91
2022-09-23T22:59:48.449Z,99770.13
2022-09-23T23:02:51.555Z,99739.78
2022-09-23T23:05:57.633Z,99766.13
2022-09-23T23:09:02.391Z,99768.03
2022-09-23T23:12:06.678Z,99764.09
2022-09-23T23:15:12.836Z,99763.25
2022-09-23T23:18:16.224Z,99741.25
2022-09-23T23:21:20.862Z,99762.00
2022-09-23T23:24:24.151Z,99759.31
2022-09-23T23:27:27.556Z,99749.16
2022-09-23T23:30:32.795Z,99758.50
2022-09-23T23:33:36.778Z,99758.91
2022-09-23T23:36:41.739Z,99760.56
2022-09-23T23:39:45.493Z,99749.97
2022-09-23T23:42:48.968Z,99751.00
2022-09-23T23:45:52.509Z,99753.91
2022-09-23T23:48:57.606Z,99752.91
2022-09-23T23:52:01.630Z,99757.44
2022-09-23T23:55:05.679Z,99757.87
2022-09-23T23:58:08.951Z,99757.06
